createdAt,value
2018-12-21T00:00:22.294Z,4.80
2018-12-21T00:02:51.373Z,4.70
2018-12-21T00:05:20.461Z,4.70
2018-12-21T00:07:49.620Z,4.70
2018-12-21T00:10:18.672Z,4.70
2018-12-21T00:12:47.813Z,4.80
2018-12-21T00:15:16.875Z,4.80
2018-12-21T00:17:46.005Z,4.80
2018-12-21T00:20:15.091Z,4.90
2018-12-21T00:22:44.172Z,5.00
2018-12-21T00:25:13.315Z,5.10
2018-12-21T00:27:42.459Z,5.20
2018-12-21T00:30:16.926Z,5.20
2018-12-21T00:32:51.131Z,5.20
2018-12-21T00:35:25.483Z,5.30
2018-12-21T00:37:59.926Z,5.30
2018-12-21T00:40:34.201Z,5.30
2018-12-21T00:43:08.692Z,5.30
2018-12-21T00:45:44.299Z,5.20
2018-12-21T00:48:13.360Z,5.20
2018-12-21T00:50:42.486Z,5.20
2018-12-21T00:53:11.655Z,5.10
2018-12-21T00:55:41.152Z,5.20
2018-12-21T00:58:10.296Z,5.30
2018-12-21T01:00:39.438Z,5.50
2018-12-21T01:03:08.581Z,5.60
2018-12-21T01:05:37.721Z,5.60
2018-12-21T01:08:07.021Z,5.70
2018-12-21T01:10:36.157Z,5.80
2018-12-21T01:13:06.064Z,5.90
2018-12-21T01:15:35.262Z,5.90
2018-12-21T01:18:04.968Z,5.80
2018-12-21T01:20:34.051Z,5.80
2018-12-21T01:23:03.161Z,5.80
2018-12-21T01:25:32.326Z,5.90
2018-12-21T01:28:01.421Z,5.90
2018-12-21T01:30:30.564Z,6.00
2018-12-21T01:32:59.642Z,6.00
2018-12-21T01:35:28.797Z,6.00
2018-12-21T01:37:57.876Z,6.10
2018-12-21T01:40:27.106Z,6.20
2018-12-21T01:42:56.168Z,6.30
2018-12-21T01:45:25.308Z,6.30
2018-12-21T01:47:54.450Z,6.30
2018-12-21T01:50:23.574Z,6.30
2018-12-21T01:52:52.670Z,6.30
2018-12-21T01:55:21.798Z,6.30
2018-12-21T01:57:50.870Z,6.30
2018-12-21T02:00:20.009Z,6.40
2018-12-21T02:02:49.133Z,6.40
2018-12-21T02:05:18.246Z,6.40
2018-12-21T02:07:47.313Z,6.40
2018-12-21T02:10:16.476Z,6.40
2018-12-21T02:12:45.539Z,6.40
2018-12-21T02:15:14.702Z,6.40
2018-12-21T02:17:43.806Z,6.50
2018-12-21T02:20:12.990Z,6.40
2018-12-21T02:22:42.078Z,6.50
2018-12-21T02:25:11.226Z,6.40
2018-12-21T02:27:40.291Z,6.40
2018-12-21T02:30:09.700Z,6.50
2018-12-21T02:32:39.357Z,6.40
2018-12-21T02:35:08.490Z,6.40
2018-12-21T02:37:37.608Z,6.60
2018-12-21T02:40:07.626Z,6.50
2018-12-21T02:42:36.785Z,6.50
2018-12-21T02:45:06.646Z,6.60
2018-12-21T02:47:35.913Z,6.50
2018-12-21T02:50:05.186Z,6.50
2018-12-21T02:52:34.283Z,6.50
2018-12-21T02:55:03.594Z,6.50
2018-12-21T02:57:32.698Z,6.50
2018-12-21T03:00:01.820Z,6.60
2018-12-21T03:02:30.934Z,6.50
2018-12-21T03:05:00.088Z,6.50
2018-12-21T03:07:29.227Z,6.40
2018-12-21T03:09:58.331Z,6.40
2018-12-21T03:12:27.391Z,6.40
2018-12-21T03:14:56.495Z,6.30
2018-12-21T03:17:25.684Z,6.30
2018-12-21T03:19:54.800Z,6.30
2018-12-21T03:22:23.875Z,6.30
2018-12-21T03:24:52.981Z,6.40
2018-12-21T03:27:22.118Z,6.40
2018-12-21T03:29:51.206Z,6.40
2018-12-21T03:32:20.323Z,6.40
2018-12-21T03:34:49.431Z,6.40
2018-12-21T03:37:18.595Z,6.50
2018-12-21T03:39:47.711Z,6.50
2018-12-21T03:42:16.809Z,6.50
2018-12-21T03:44:45.971Z,6.50
2018-12-21T03:47:15.114Z,6.50
2018-12-21T03:49:44.185Z,6.40
2018-12-21T03:52:13.305Z,6.40
2018-12-21T03:54:42.455Z,6.40
2018-12-21T03:57:11.495Z,6.50
2018-12-21T03:59:40.611Z,6.40
2018-12-21T04:02:09.815Z,6.40
2018-12-21T04:04:38.903Z,6.40
2018-12-21T04:07:08.013Z,6.40
2018-12-21T04:09:37.058Z,6.40
2018-12-21T04:12:06.142Z,6.40
2018-12-21T04:14:35.239Z,6.30
2018-12-21T04:17:04.326Z,6.30
2018-12-21T04:19:33.432Z,6.30
2018-12-21T04:22:02.568Z,6.30
2018-12-21T04:24:31.781Z,6.20
2018-12-21T04:27:00.964Z,6.30
2018-12-21T04:29:30.077Z,6.30
2018-12-21T04:31:59.234Z,6.30
2018-12-21T04:34:28.423Z,6.30
2018-12-21T04:36:57.480Z,6.30
2018-12-21T04:39:26.555Z,6.10
2018-12-21T04:41:55.710Z,6.00
2018-12-21T04:44:24.845Z,5.90
2018-12-21T04:46:53.971Z,5.80
2018-12-21T04:49:23.229Z,5.70
2018-12-21T04:51:52.386Z,5.60
2018-12-21T04:54:21.513Z,5.60
2018-12-21T04:56:50.646Z,5.60
2018-12-21T04:59:19.810Z,5.50
2018-12-21T05:01:48.930Z,5.50
2018-12-21T05:04:20.134Z,5.40
2018-12-21T05:06:49.457Z,5.40
2018-12-21T05:09:18.645Z,5.40
2018-12-21T05:11:47.725Z,5.30
2018-12-21T05:14:16.862Z,5.30
2018-12-21T05:16:47.224Z,5.30
2018-12-21T05:19:16.369Z,5.20
2018-12-21T05:21:45.577Z,5.20
2018-12-21T05:24:15.362Z,5.20
2018-12-21T05:26:44.538Z,5.10
2018-12-21T05:29:13.663Z,5.00
2018-12-21T05:31:42.830Z,5.00
2018-12-21T05:34:11.959Z,4.90
2018-12-21T05:36:41.155Z,5.00
2018-12-21T05:39:10.253Z,5.10
2018-12-21T05:41:39.335Z,5.10
2018-12-21T05:44:08.371Z,5.00
2018-12-21T05:46:37.496Z,5.00
2018-12-21T05:49:06.605Z,4.90
2018-12-21T05:51:35.746Z,4.90
2018-12-21T05:54:04.815Z,4.90
2018-12-21T05:56:33.982Z,4.90
2018-12-21T05:59:03.074Z,4.80
2018-12-21T06:01:32.188Z,4.80
2018-12-21T06:04:01.246Z,4.80
2018-12-21T06:06:30.398Z,4.70
2018-12-21T06:08:59.554Z,4.60
2018-12-21T06:11:28.629Z,4.60
2018-12-21T06:13:57.795Z,4.50
2018-12-21T06:16:26.905Z,4.50
2018-12-21T06:18:56.015Z,4.50
2018-12-21T06:21:25.137Z,4.50
2018-12-21T06:23:54.332Z,4.50
2018-12-21T06:26:23.465Z,4.40
2018-12-21T06:28:52.621Z,4.50
2018-12-21T06:31:21.782Z,4.50
2018-12-21T06:33:51.012Z,4.60
2018-12-21T06:36:20.329Z,4.50
2018-12-21T06:38:49.615Z,4.50
2018-12-21T06:41:18.711Z,4.40
2018-12-21T06:43:48.785Z,4.40
2018-12-21T06:46:17.876Z,4.40
2018-12-21T06:48:47.033Z,4.40
2018-12-21T06:51:16.109Z,4.40
2018-12-21T06:53:46.906Z,4.40
2018-12-21T06:56:15.966Z,4.40
2018-12-21T06:58:45.165Z,4.40
2018-12-21T07:01:14.275Z,4.40
2018-12-21T07:03:43.472Z,4.40
2018-12-21T07:06:12.534Z,4.50
2018-12-21T07:08:41.667Z,4.50
2018-12-21T07:11:10.863Z,4.40
2018-12-21T07:13:39.943Z,4.30
2018-12-21T07:16:09.052Z,4.30
2018-12-21T07:18:38.195Z,4.30
2018-12-21T07:21:07.270Z,4.30
2018-12-21T07:23:36.409Z,4.30
2018-12-21T07:26:05.651Z,4.30
2018-12-21T07:28:34.787Z,4.30
2018-12-21T07:31:03.931Z,4.30
2018-12-21T07:33:33.167Z,4.20
2018-12-21T07:36:08.293Z,4.20
2018-12-21T07:38:33.379Z,4.20
2018-12-21T07:41:03.650Z,4.20
2018-12-21T07:43:39.423Z,4.20
2018-12-21T07:46:12.787Z,4.20
2018-12-21T07:48:44.611Z,4.20
2018-12-21T07:51:13.979Z,4.20
2018-12-21T07:53:54.563Z,4.20
2018-12-21T07:56:24.049Z,4.20
2018-12-21T07:58:57.430Z,4.30
2018-12-21T08:01:37.879Z,4.30
2018-12-21T08:04:17.636Z,4.30
2018-12-21T08:06:52.041Z,4.30
2018-12-21T08:09:30.068Z,4.40
2018-12-21T08:12:12.373Z,4.50
2018-12-21T08:14:45.880Z,4.60
2018-12-21T08:17:25.270Z,4.60
2018-12-21T08:19:54.485Z,4.70
2018-12-21T08:25:25.460Z,4.70
2018-12-21T08:28:02.692Z,4.80
2018-12-21T08:30:33.808Z,4.80
2018-12-21T08:33:17.648Z,4.80
2018-12-21T08:35:46.960Z,4.90
2018-12-21T08:38:39.388Z,5.00
2018-12-21T08:41:08.708Z,5.00
2018-12-21T08:43:39.377Z,5.10
2018-12-21T08:48:57.186Z,5.20
2018-12-21T08:51:37.170Z,5.40
2018-12-21T08:54:13.938Z,5.40
2018-12-21T08:56:46.535Z,5.50
2018-12-21T08:59:19.835Z,5.50
2018-12-21T09:02:01.447Z,5.60
2018-12-21T09:04:52.933Z,5.60
2018-12-21T09:07:23.123Z,5.60
2018-12-21T09:09:52.221Z,5.70
2018-12-21T09:12:30.924Z,5.80
2018-12-21T09:15:04.629Z,5.80
2018-12-21T09:17:35.836Z,5.90
2018-12-21T09:20:13.577Z,5.90
2018-12-21T09:22:46.831Z,6.00
2018-12-21T09:25:24.860Z,6.00
2018-12-21T09:28:04.464Z,6.10
2018-12-21T09:30:35.011Z,6.20
2018-12-21T09:33:11.359Z,6.40
2018-12-21T09:35:56.969Z,6.80
2018-12-21T09:38:35.771Z,7.10
2018-12-21T09:41:10.646Z,7.20
2018-12-21T09:43:42.019Z,7.30
2018-12-21T09:46:16.392Z,7.20
2018-12-21T09:48:49.195Z,7.10
2018-12-21T09:51:26.276Z,6.90
2018-12-21T09:54:09.861Z,6.70
2018-12-21T09:56:44.008Z,6.30
2018-12-21T09:59:13.527Z,6.10
2018-12-21T10:01:53.737Z,5.90
2018-12-21T10:04:25.207Z,5.70
2018-12-21T10:06:54.518Z,5.70
2018-12-21T10:09:23.675Z,5.60
2018-12-21T10:11:52.758Z,5.50
2018-12-21T10:14:21.943Z,5.50
2018-12-21T10:16:51.167Z,5.50
2018-12-21T10:19:20.309Z,5.40
2018-12-21T10:21:49.417Z,5.50
2018-12-21T10:24:18.911Z,5.40
2018-12-21T10:26:48.184Z,5.30
2018-12-21T10:29:17.298Z,5.30
2018-12-21T10:31:46.378Z,5.30
2018-12-21T10:34:15.536Z,5.30
2018-12-21T10:36:44.651Z,5.40
2018-12-21T10:39:13.742Z,5.40
2018-12-21T10:41:42.907Z,5.40
2018-12-21T10:44:12.064Z,5.40
2018-12-21T10:46:41.184Z,5.40
2018-12-21T10:49:10.305Z,5.40
2018-12-21T10:51:39.682Z,5.50
2018-12-21T10:54:08.785Z,5.40
2018-12-21T10:56:37.900Z,5.50
2018-12-21T10:59:07.020Z,5.40
2018-12-21T11:01:36.082Z,5.40
2018-12-21T11:04:05.258Z,5.40
2018-12-21T11:06:34.449Z,5.40
2018-12-21T11:09:04.470Z,5.50
2018-12-21T11:11:33.695Z,5.50
2018-12-21T11:14:02.770Z,5.40
2018-12-21T11:16:31.936Z,5.40
2018-12-21T11:19:01.070Z,5.40
2018-12-21T11:21:30.267Z,5.40
2018-12-21T11:23:59.397Z,5.40
2018-12-21T11:26:28.626Z,5.40
2018-12-21T11:28:57.763Z,5.30
2018-12-21T11:31:26.947Z,5.30
2018-12-21T11:33:56.123Z,5.30
2018-12-21T11:36:25.303Z,5.20
2018-12-21T11:38:54.396Z,5.20
2018-12-21T11:41:23.604Z,5.10
2018-12-21T11:43:52.771Z,5.10
2018-12-21T11:46:21.936Z,5.00
2018-12-21T11:48:51.038Z,4.90
2018-12-21T11:51:20.293Z,4.90
2018-12-21T11:53:49.487Z,4.80
2018-12-21T11:56:18.733Z,4.80
2018-12-21T11:58:47.829Z,4.80
2018-12-21T12:01:17.083Z,4.80
2018-12-21T12:03:46.220Z,4.80
2018-12-21T12:06:15.436Z,4.80
2018-12-21T12:08:46.117Z,4.70
2018-12-21T12:11:15.295Z,4.80
2018-12-21T12:13:44.383Z,4.70
2018-12-21T12:16:13.570Z,4.70
2018-12-21T12:18:42.764Z,4.70
2018-12-21T12:21:11.874Z,4.70
2018-12-21T12:23:41.033Z,4.70
2018-12-21T12:26:10.173Z,4.70
2018-12-21T12:28:39.323Z,4.80
2018-12-21T12:31:08.378Z,4.80
2018-12-21T12:33:37.754Z,4.80
2018-12-21T12:36:06.830Z,4.80
2018-12-21T12:38:36.036Z,4.90
2018-12-21T12:41:06.770Z,4.80
2018-12-21T12:43:36.371Z,4.80
2018-12-21T12:46:05.483Z,4.80
2018-12-21T12:48:34.854Z,4.80
2018-12-21T12:51:04.012Z,4.80
2018-12-21T12:53:33.134Z,4.80
2018-12-21T12:56:02.238Z,4.80
2018-12-21T12:58:31.386Z,4.80
2018-12-21T13:01:00.504Z,4.90
2018-12-21T13:03:29.668Z,4.90
2018-12-21T13:05:58.794Z,5.00
2018-12-21T13:08:27.951Z,5.00
2018-12-21T13:10:57.227Z,5.00
2018-12-21T13:13:26.454Z,5.10
2018-12-21T13:15:55.560Z,5.10
2018-12-21T13:18:25.567Z,5.20
2018-12-21T13:20:54.700Z,5.30
2018-12-21T13:23:23.860Z,5.40
2018-12-21T13:25:52.992Z,5.40
2018-12-21T13:28:22.255Z,5.50
2018-12-21T13:30:51.458Z,5.50
2018-12-21T13:33:20.864Z,5.60
2018-12-21T13:35:50.127Z,5.80
2018-12-21T13:38:20.931Z,6.10
2018-12-21T13:40:50.146Z,6.40
2018-12-21T13:43:19.295Z,6.70
2018-12-21T13:45:48.456Z,6.90
2018-12-21T13:48:17.720Z,7.10
2018-12-21T13:50:47.057Z,7.40
2018-12-21T13:53:16.375Z,7.50
2018-12-21T13:55:45.453Z,7.70
2018-12-21T13:58:14.785Z,7.80
2018-12-21T14:00:43.950Z,7.80
2018-12-21T14:03:13.261Z,7.90
2018-12-21T14:05:42.498Z,8.00
2018-12-21T14:08:11.853Z,8.20
2018-12-21T14:10:41.133Z,8.40
2018-12-21T14:13:10.913Z,8.50
2018-12-21T14:15:40.287Z,8.50
2018-12-21T14:18:09.808Z,8.60
2018-12-21T14:20:39.048Z,8.60
2018-12-21T14:23:08.144Z,8.70
2018-12-21T14:25:38.118Z,8.70
2018-12-21T14:28:07.296Z,8.70
2018-12-21T14:30:36.621Z,8.60
2018-12-21T14:33:06.027Z,8.50
2018-12-21T14:35:35.138Z,8.50
2018-12-21T14:38:04.357Z,8.50
2018-12-21T14:40:33.573Z,8.60
2018-12-21T14:43:02.708Z,8.70
2018-12-21T14:45:31.871Z,8.70
2018-12-21T14:48:00.955Z,8.80
2018-12-21T14:50:30.339Z,8.80
2018-12-21T14:52:59.630Z,8.80
2018-12-21T14:55:37.281Z,8.80
2018-12-21T14:58:00.186Z,8.90
2018-12-21T15:00:29.331Z,8.90
2018-12-21T15:02:58.423Z,9.00
2018-12-21T15:05:27.677Z,9.00
2018-12-21T15:07:57.583Z,9.00
2018-12-21T15:10:26.852Z,9.00
2018-12-21T15:12:56.042Z,8.90
2018-12-21T15:15:25.337Z,8.90
2018-12-21T15:17:55.562Z,8.90
2018-12-21T15:20:24.841Z,8.80
2018-12-21T15:22:54.054Z,8.80
2018-12-21T15:25:23.233Z,8.90
2018-12-21T15:27:52.513Z,8.90
2018-12-21T15:30:21.803Z,9.00
2018-12-21T15:32:50.974Z,9.00
2018-12-21T15:35:20.123Z,9.10
2018-12-21T15:37:49.306Z,9.10
2018-12-21T15:40:18.555Z,9.10
2018-12-21T15:42:47.906Z,9.10
2018-12-21T15:45:17.148Z,9.10
2018-12-21T15:47:46.479Z,9.20
2018-12-21T15:50:15.645Z,9.20
2018-12-21T15:52:44.881Z,9.10
2018-12-21T15:55:13.999Z,9.20
2018-12-21T15:57:43.198Z,9.20
2018-12-21T16:00:16.692Z,9.20
2018-12-21T16:02:49.432Z,9.30
2018-12-21T16:05:18.627Z,9.30
2018-12-21T16:07:47.898Z,9.30
2018-12-21T16:10:16.998Z,9.30
2018-12-21T16:12:46.328Z,9.50
2018-12-21T16:15:15.485Z,9.50
2018-12-21T16:17:44.685Z,9.60
2018-12-21T16:20:15.452Z,9.70
2018-12-21T16:22:44.724Z,9.80
2018-12-21T16:25:14.075Z,9.80
2018-12-21T16:27:43.526Z,9.80
2018-12-21T16:30:13.443Z,9.90
2018-12-21T16:32:42.673Z,10.00
2018-12-21T16:35:11.952Z,10.00
2018-12-21T16:37:41.095Z,10.00
2018-12-21T16:40:11.522Z,10.10
2018-12-21T16:42:41.017Z,10.10
2018-12-21T16:45:11.547Z,10.20
2018-12-21T16:47:40.811Z,10.20
2018-12-21T16:50:13.067Z,10.20
2018-12-21T16:52:42.307Z,10.30
2018-12-21T16:55:11.554Z,10.30
2018-12-21T16:57:40.758Z,10.40
2018-12-21T17:00:13.073Z,10.40
2018-12-21T17:02:42.277Z,10.40
2018-12-21T17:05:11.610Z,10.30
2018-12-21T17:07:40.715Z,10.30
2018-12-21T17:10:15.332Z,10.40
2018-12-21T17:12:44.586Z,10.40
2018-12-21T17:15:14.062Z,10.40
2018-12-21T17:17:43.441Z,10.40
2018-12-21T17:20:12.769Z,10.50
2018-12-21T17:22:41.931Z,10.50
2018-12-21T17:25:13.590Z,10.50
2018-12-21T17:27:42.850Z,10.50
2018-12-21T17:30:13.371Z,10.60
2018-12-21T17:32:43.868Z,10.50
2018-12-21T17:35:13.060Z,10.50
2018-12-21T17:37:42.189Z,10.50
2018-12-21T17:40:12.115Z,10.60
2018-12-21T17:42:41.321Z,10.50
2018-12-21T17:45:12.579Z,10.50
2018-12-21T17:47:41.775Z,10.50
2018-12-21T17:50:11.512Z,10.50
2018-12-21T17:52:40.701Z,10.50
2018-12-21T17:55:10.713Z,10.50
2018-12-21T17:57:40.145Z,10.60
2018-12-21T18:00:17.262Z,10.60
2018-12-21T18:02:49.018Z,10.60
2018-12-21T18:05:18.257Z,10.60
2018-12-21T18:07:47.798Z,10.60
2018-12-21T18:10:17.031Z,10.60
2018-12-21T18:12:46.199Z,10.60
2018-12-21T18:15:15.619Z,10.60
2018-12-21T18:17:44.903Z,10.60
2018-12-21T18:20:14.535Z,10.50
2018-12-21T18:22:43.929Z,10.60
2018-12-21T18:25:16.417Z,10.60
2018-12-21T18:27:48.357Z,10.60
2018-12-21T18:30:21.499Z,10.60
2018-12-21T18:32:50.745Z,10.60
2018-12-21T18:35:20.564Z,10.60
2018-12-21T18:38:06.008Z,10.60
2018-12-21T18:40:35.515Z,10.60
2018-12-21T18:43:07.623Z,10.60
2018-12-21T18:45:36.828Z,10.60
2018-12-21T18:48:08.131Z,10.70
2018-12-21T18:50:37.983Z,10.70
2018-12-21T18:53:07.736Z,10.80
2018-12-21T18:55:37.390Z,10.70
2018-12-21T18:58:07.321Z,10.80
2018-12-21T19:00:37.017Z,10.70
2018-12-21T19:03:07.398Z,10.70
2018-12-21T19:05:37.085Z,10.70
2018-12-21T19:08:06.789Z,10.80
2018-12-21T19:10:36.552Z,10.80
2018-12-21T19:13:06.289Z,10.80
2018-12-21T19:15:35.917Z,10.80
2018-12-21T19:18:05.591Z,10.70
2018-12-21T19:20:35.407Z,10.70
2018-12-21T19:23:06.459Z,10.70
2018-12-21T19:25:35.911Z,10.70
2018-12-21T19:28:06.807Z,10.80
2018-12-21T19:30:35.918Z,10.80
2018-12-21T19:33:05.690Z,10.80
2018-12-21T19:35:35.199Z,10.70
2018-12-21T19:38:05.094Z,10.70
2018-12-21T19:40:34.238Z,10.70
2018-12-21T19:43:04.685Z,10.70
2018-12-21T19:45:34.133Z,10.70
2018-12-21T19:48:05.530Z,10.70
2018-12-21T19:50:35.092Z,10.60
2018-12-21T19:53:05.934Z,10.60
2018-12-21T19:56:21.068Z,10.70
2018-12-21T19:58:50.212Z,10.70
2018-12-21T20:01:19.503Z,10.60
2018-12-21T20:03:48.637Z,10.70
2018-12-21T20:06:18.124Z,10.70
2018-12-21T20:08:47.228Z,10.70
2018-12-21T20:11:16.539Z,10.60
2018-12-21T20:13:45.791Z,10.50
2018-12-21T20:16:15.525Z,10.60
2018-12-21T20:18:45.213Z,10.60
2018-12-21T20:21:15.135Z,10.60
2018-12-21T20:23:45.169Z,10.60
2018-12-21T20:26:14.884Z,10.60
2018-12-21T20:28:44.206Z,10.60
2018-12-21T20:31:14.116Z,10.60
2018-12-21T20:33:43.342Z,10.60
2018-12-21T20:36:12.917Z,10.60
2018-12-21T20:38:42.537Z,10.70
2018-12-21T20:41:12.445Z,10.70
2018-12-21T20:43:42.447Z,10.80
2018-12-21T20:46:13.096Z,10.80
2018-12-21T20:48:42.824Z,10.80
2018-12-21T20:51:12.430Z,10.70
2018-12-21T20:53:43.026Z,10.80
2018-12-21T20:56:12.767Z,10.80
2018-12-21T20:58:50.212Z,10.80
2018-12-21T21:01:19.448Z,10.80
2018-12-21T21:03:49.220Z,10.80
2018-12-21T21:06:18.410Z,10.90
2018-12-21T21:08:47.686Z,10.90
2018-12-21T21:11:24.297Z,10.90
2018-12-21T21:13:48.866Z,10.90
2018-12-21T21:16:18.501Z,10.90
2018-12-21T21:18:48.109Z,10.90
2018-12-21T21:21:17.940Z,10.90
2018-12-21T21:23:47.381Z,11.00
2018-12-21T21:26:16.569Z,11.00
2018-12-21T21:28:46.109Z,11.00
2018-12-21T21:31:15.431Z,11.00
2018-12-21T21:33:44.690Z,11.00
2018-12-21T21:36:13.931Z,11.10
2018-12-21T21:38:43.115Z,11.10
2018-12-21T21:41:12.366Z,11.10
2018-12-21T21:43:41.566Z,11.00
2018-12-21T21:46:10.887Z,11.00
2018-12-21T21:48:40.189Z,11.00
2018-12-21T21:51:10.007Z,10.90
2018-12-21T21:53:39.464Z,10.90
2018-12-21T21:56:09.141Z,11.00
2018-12-21T21:58:38.993Z,11.00
2018-12-21T22:01:10.591Z,11.00
2018-12-21T22:03:40.600Z,11.00
2018-12-21T22:06:10.156Z,11.00
2018-12-21T22:08:39.850Z,11.00
2018-12-21T22:11:09.560Z,11.00
2018-12-21T22:13:38.807Z,11.00
2018-12-21T22:16:08.670Z,11.00
2018-12-21T22:18:39.279Z,11.10
2018-12-21T22:21:09.462Z,11.10
2018-12-21T22:23:39.462Z,11.10
2018-12-21T22:26:09.163Z,11.00
2018-12-21T22:28:38.833Z,11.10
2018-12-21T22:31:08.216Z,11.10
2018-12-21T22:33:37.555Z,11.00
2018-12-21T22:36:07.365Z,11.00
2018-12-21T22:38:36.671Z,11.00
2018-12-21T22:41:06.062Z,11.00
2018-12-21T22:43:35.523Z,11.00
2018-12-21T22:46:05.345Z,11.10
2018-12-21T22:48:34.450Z,11.20
2018-12-21T22:51:04.710Z,11.20
2018-12-21T22:53:33.914Z,11.20
2018-12-21T22:56:03.135Z,11.30
2018-12-21T22:58:32.967Z,11.20
2018-12-21T23:01:02.266Z,11.20
2018-12-21T23:03:31.432Z,11.20
2018-12-21T23:06:00.615Z,11.20
2018-12-21T23:08:29.782Z,11.20
2018-12-21T23:10:58.859Z,11.30
2018-12-21T23:13:28.076Z,11.20
2018-12-21T23:15:57.271Z,11.20
2018-12-21T23:18:26.545Z,11.20
2018-12-21T23:20:55.674Z,11.20
2018-12-21T23:23:24.889Z,11.20
2018-12-21T23:25:54.030Z,11.10
2018-12-21T23:28:23.326Z,11.10
2018-12-21T23:30:52.460Z,11.10
2018-12-21T23:33:21.619Z,10.90
2018-12-21T23:35:50.722Z,10.80
2018-12-21T23:38:19.841Z,10.70
2018-12-21T23:40:48.912Z,10.90
2018-12-21T23:43:18.944Z,10.90
2018-12-21T23:45:48.127Z,10.90
2018-12-21T23:48:17.231Z,10.90
2018-12-21T23:50:46.327Z,10.90
2018-12-21T23:53:15.542Z,10.90
2018-12-21T23:55:44.714Z,11.00
2018-12-21T23:58:14.145Z,11.00
